Time;durP1;ratioP1;P1;durP2;ratioP2;P2;SDS_P1;SDS_P2;PMS_P1;PMS_P2;Temp;Humidity;BMP_temperature;BMP_pressure;BME280_temperature;BME280_humidity;BME280_pressure;Samples;Min_cycle;Max_cycle;Signal;HPM_P1;HPM_P2
2022/05/29 00:01:49;;;;;;;10.70;4.35;;;22.80;98.20;;;;;;5093457;28;20201;-83
2022/05/29 00:04:19;;;;;;;8.23;4.72;;;22.90;98.20;;;;;;5041963;28;20432;-83
2022/05/29 00:06:51;;;;;;;12.07;4.72;;;22.80;98.50;;;;;;5059403;28;20417;-83
2022/05/29 00:09:37;;;;;;;10.13;4.45;;;22.80;98.70;;;;;;5059584;28;20056;-83
2022/05/29 00:12:06;;;;;;;10.00;3.38;;;22.80;98.80;;;;;;5040934;28;20056;-83
2022/05/29 00:14:35;;;;;;;8.38;3.63;;;22.80;99.00;;;;;;5075097;28;20101;-83
2022/05/29 00:17:04;;;;;;;10.57;4.13;;;22.90;99.10;;;;;;5091911;28;20097;-83
2022/05/29 00:19:32;;;;;;;8.60;3.25;;;22.80;99.30;;;;;;5047919;28;20055;-83
2022/05/29 00:22:02;;;;;;;12.10;4.95;;;22.90;99.50;;;;;;5075036;28;20039;-83
2022/05/29 00:24:30;;;;;;;14.77;4.55;;;22.80;99.70;;;;;;5041983;28;20559;-83
2022/05/29 00:26:57;;;;;;;8.32;3.75;;;22.80;99.90;;;;;;5058181;28;20051;-84
2022/05/29 00:29:25;;;;;;;9.48;4.82;;;22.70;99.90;;;;;;5059075;28;20048;-84
2022/05/29 00:31:53;;;;;;;9.90;4.05;;;22.50;99.90;;;;;;5058138;28;20502;-81
2022/05/29 00:34:21;;;;;;;8.07;3.50;;;22.50;99.90;;;;;;5045713;28;20056;-83
2022/05/29 00:36:48;;;;;;;12.43;4.85;;;22.50;99.90;;;;;;5018616;28;20045;-81
2022/05/29 00:39:17;;;;;;;12.68;3.78;;;22.30;99.90;;;;;;5051483;28;20609;-81
2022/05/29 00:41:44;;;;;;;12.68;5.78;;;22.20;99.90;;;;;;5051381;28;20057;-82
2022/05/29 00:44:18;;;;;;;11.77;5.78;;;22.00;99.90;;;;;;5035212;28;20049;-81
2022/05/29 00:46:54;;;;;;;12.50;4.68;;;21.80;99.90;;;;;;5018969;28;20574;-81
2022/05/29 00:49:27;;;;;;;10.85;5.70;;;21.70;99.90;;;;;;5034858;28;20052;-81
2022/05/29 00:52:02;;;;;;;11.60;6.10;;;21.60;99.90;;;;;;5034736;28;20045;-81
2022/05/29 00:54:42;;;;;;;9.05;5.55;;;21.60;99.90;;;;;;5051793;28;20049;-81
2022/05/29 00:57:15;;;;;;;13.98;5.95;;;21.60;99.90;;;;;;5051222;28;20049;-81
2022/05/29 00:59:44;;;;;;;8.95;5.82;;;21.50;99.90;;;;;;5018564;28;20060;-80
2022/05/29 01:02:12;;;;;;;12.38;6.35;;;21.40;99.90;;;;;;5034702;28;20578;-80
2022/05/29 01:04:42;;;;;;;13.25;5.68;;;21.30;99.90;;;;;;5051027;28;20126;-81
2022/05/29 01:07:15;;;;;;;13.25;6.05;;;21.10;99.90;;;;;;5051408;28;20045;-80
2022/05/29 01:09:46;;;;;;;15.07;6.38;;;21.20;99.90;;;;;;5017597;28;20085;-81
2022/05/29 01:12:52;;;;;;;12.15;6.22;;;21.10;99.90;;;;;;5051921;28;20044;-81
2022/05/29 01:15:29;;;;;;;17.00;6.78;;;21.10;99.90;;;;;;5016974;28;20454;-81
2022/05/29 01:18:28;;;;;;;19.70;6.57;;;21.10;99.90;;;;;;5032390;28;20095;-80
2022/05/29 01:21:07;;;;;;;19.67;8.45;;;21.10;99.90;;;;;;5034501;28;20544;-81
2022/05/29 01:24:03;;;;;;;25.30;6.47;;;21.10;99.90;;;;;;5017849;28;20056;-81
2022/05/29 01:27:16;;;;;;;21.42;7.50;;;21.20;99.50;;;;;;5051204;28;20053;-81
2022/05/29 01:29:58;;;;;;;13.52;5.68;;;21.30;99.20;;;;;;5031869;28;20075;-81
2022/05/29 01:32:54;;;;;;;17.98;5.78;;;21.30;99.20;;;;;;5033398;28;20037;-80
2022/05/29 01:35:35;;;;;;;17.08;5.70;;;21.30;99.40;;;;;;5033893;28;20052;-80
2022/05/29 01:38:29;;;;;;;15.23;5.30;;;21.30;98.90;;;;;;5050539;28;20071;-81
2022/05/29 01:41:12;;;;;;;19.33;7.05;;;21.40;98.80;;;;;;5017758;28;20106;-81
2022/05/29 01:43:46;;;;;;;13.30;5.65;;;21.40;98.80;;;;;;5034183;28;20099;-80
2022/05/29 01:46:22;;;;;;;18.50;6.25;;;21.40;98.90;;;;;;5050184;28;20562;-80
2022/05/29 01:49:14;;;;;;;23.48;5.72;;;21.40;98.90;;;;;;5033928;28;20055;-80
2022/05/29 01:51:53;;;;;;;16.48;5.25;;;21.30;99.00;;;;;;5034153;28;20394;-81
2022/05/29 01:54:33;;;;;;;20.80;7.53;;;21.20;99.10;;;;;;5017531;28;20180;-81
2022/05/29 01:57:30;;;;;;;17.83;5.47;;;21.10;99.30;;;;;;5017318;28;20052;-80
2022/05/29 02:00:06;;;;;;;15.35;5.88;;;20.90;99.50;;;;;;5029033;28;20063;-81
2022/05/29 02:02:36;;;;;;;22.70;7.68;;;20.80;99.80;;;;;;5050160;28;20049;-80
2022/05/29 02:05:12;;;;;;;24.45;7.45;;;20.70;99.90;;;;;;5050562;28;20140;-80
2022/05/29 02:07:50;;;;;;;13.95;6.07;;;20.70;99.90;;;;;;5032877;28;20076;-81
2022/05/29 02:10:27;;;;;;;16.90;5.97;;;20.70;99.90;;;;;;5029646;28;20049;-80
2022/05/29 02:13:23;;;;;;;21.02;7.38;;;20.70;99.90;;;;;;5013862;28;20056;-80
2022/05/29 02:15:54;;;;;;;15.38;6.72;;;20.70;99.90;;;;;;5029822;28;20052;-81
2022/05/29 02:18:46;;;;;;;15.23;6.00;;;20.70;99.90;;;;;;5029208;28;20618;-80
2022/05/29 02:21:42;;;;;;;12.05;6.38;;;20.70;99.90;;;;;;5029335;28;20498;-81
2022/05/29 02:24:18;;;;;;;14.80;7.00;;;20.70;99.90;;;;;;5029122;28;20384;-80
2022/05/29 02:26:53;;;;;;;16.33;6.00;;;20.90;99.90;;;;;;5029971;28;20148;-80
2022/05/29 02:29:21;;;;;;;15.82;6.75;;;20.90;99.90;;;;;;5030207;28;20052;-80
2022/05/29 02:32:06;;;;;;;15.45;5.47;;;20.80;99.90;;;;;;5029765;28;20044;-81
2022/05/29 02:35:00;;;;;;;17.63;7.40;;;20.70;99.90;;;;;;4997173;28;20062;-80
2022/05/29 02:37:59;;;;;;;29.05;8.20;;;20.70;99.90;;;;;;5030031;28;20049;-82
2022/05/29 02:40:38;;;;;;;13.95;7.05;;;20.60;99.90;;;;;;5029653;28;20120;-81
2022/05/29 02:43:32;;;;;;;25.35;6.57;;;20.70;99.90;;;;;;5029577;28;20492;-80
2022/05/29 02:46:30;;;;;;;23.20;7.47;;;20.80;99.90;;;;;;5016560;28;20092;-81
2022/05/29 02:49:12;;;;;;;25.40;7.18;;;20.80;99.90;;;;;;5029486;28;20160;-80
2022/05/29 02:51:51;;;;;;;23.15;7.70;;;20.70;99.90;;;;;;5029395;28;20091;-80
2022/05/29 02:54:25;;;;;;;20.52;7.30;;;20.90;99.90;;;;;;5012586;28;20049;-80
2022/05/29 02:56:53;;;;;;;19.15;6.45;;;21.00;99.90;;;;;;5013120;28;20068;-81
2022/05/29 02:59:25;;;;;;;19.45;5.88;;;21.00;99.90;;;;;;5013421;28;20046;-80
2022/05/29 03:02:02;;;;;;;21.88;6.40;;;21.10;99.90;;;;;;5028325;28;20057;-80
2022/05/29 03:05:07;;;;;;;16.42;5.68;;;21.10;99.90;;;;;;5049570;28;20049;-80
2022/05/29 03:07:53;;;;;;;15.65;7.65;;;21.20;99.90;;;;;;5047417;28;20079;-80
2022/05/29 03:10:32;;;;;;;19.58;6.35;;;21.10;99.90;;;;;;5033514;28;20574;-80
2022/05/29 03:13:08;;;;;;;18.83;5.57;;;21.30;99.90;;;;;;5032609;28;20049;-81
2022/05/29 03:15:38;;;;;;;;;;;21.40;99.90;;;;;;5049497;28;20049;-81
2022/05/29 03:18:09;;;;;;;19.83;6.63;;;21.30;99.90;;;;;;5016026;28;19925;-79
2022/05/29 03:21:06;;;;;;;13.48;5.95;;;21.40;99.90;;;;;;5032722;28;20390;-80
2022/05/29 03:23:48;;;;;;;15.35;6.15;;;21.30;99.90;;;;;;5049001;28;20064;-80
2022/05/29 03:26:26;;;;;;;14.00;5.95;;;21.40;99.90;;;;;;5032286;28;20084;-80
2022/05/29 03:29:06;;;;;;;15.57;7.32;;;21.40;99.90;;;;;;5048822;28;20067;-80
2022/05/29 03:31:34;;;;;;;16.67;5.90;;;21.30;99.90;;;;;;5016165;28;20040;-81
2022/05/29 03:34:03;;;;;;;13.55;5.30;;;21.30;99.90;;;;;;5052701;28;20526;-80
2022/05/29 03:36:30;;;;;;;18.75;7.32;;;21.20;99.90;;;;;;5052750;28;20583;-80
2022/05/29 03:38:58;;;;;;;17.17;6.40;;;21.20;99.90;;;;;;5052793;28;20052;-80
2022/05/29 03:41:39;;;;;;;16.73;6.95;;;21.10;99.90;;;;;;5052652;28;20083;-80
2022/05/29 03:44:06;;;;;;;19.00;7.00;;;21.10;99.90;;;;;;5020207;28;20171;-80
2022/05/29 03:46:34;;;;;;;15.13;7.15;;;21.10;99.90;;;;;;5020051;28;20080;-80
2022/05/29 03:49:02;;;;;;;16.50;6.13;;;21.10;99.90;;;;;;5031685;28;20056;-80
2022/05/29 03:51:29;;;;;;;14.98;7.13;;;21.10;99.90;;;;;;5016059;28;20496;-80
2022/05/29 03:53:57;;;;;;;18.38;7.18;;;21.10;99.90;;;;;;5016083;28;20049;-80
2022/05/29 03:56:24;;;;;;;19.42;7.43;;;21.10;99.90;;;;;;5016019;28;20451;-81
2022/05/29 03:58:53;;;;;;;16.50;7.25;;;21.00;99.90;;;;;;5032573;28;20103;-80
2022/05/29 04:01:21;;;;;;;14.45;6.70;;;21.00;99.90;;;;;;5032588;28;20499;-80
2022/05/29 04:03:49;;;;;;;15.65;7.43;;;20.90;99.90;;;;;;5033647;28;20041;-80
2022/05/29 04:06:17;;;;;;;15.45;6.88;;;20.90;99.90;;;;;;5015911;28;20089;-80
2022/05/29 04:14:16;;;;;;;18.92;6.63;;;21.00;99.90;;;;;;5032312;28;20582;-80
2022/05/29 04:16:44;;;;;;;17.13;6.68;;;21.00;99.90;;;;;;5032292;28;20073;-81
2022/05/29 04:19:12;;;;;;;16.85;6.45;;;21.00;99.90;;;;;;4999677;28;20466;-80
2022/05/29 04:21:39;;;;;;;20.83;7.47;;;20.90;99.90;;;;;;5048614;28;20124;-80
2022/05/29 04:24:07;;;;;;;18.70;7.57;;;21.00;99.90;;;;;;5048257;28;20103;-80
2022/05/29 04:26:36;;;;;;;19.73;7.90;;;20.90;99.90;;;;;;5033296;28;20398;-80
2022/05/29 04:29:05;;;;;;;21.10;7.95;;;21.00;99.90;;;;;;5048323;28;20068;-80
2022/05/29 04:31:34;;;;;;;24.15;7.97;;;21.00;99.90;;;;;;5015757;28;20104;-80
2022/05/29 04:34:01;;;;;;;23.30;7.65;;;21.00;99.90;;;;;;5014903;28;20084;-80
2022/05/29 04:36:29;;;;;;;23.40;8.32;;;21.10;99.90;;;;;;5031584;28;20551;-80
2022/05/29 04:38:57;;;;;;;17.45;6.30;;;21.10;99.90;;;;;;5031947;28;20049;-80
2022/05/29 04:41:25;;;;;;;17.15;6.85;;;21.10;99.90;;;;;;5015170;28;20041;-80
2022/05/29 04:43:52;;;;;;;16.23;8.20;;;21.30;99.90;;;;;;5032615;28;20546;-80
2022/05/29 04:46:20;;;;;;;19.70;7.78;;;21.40;99.90;;;;;;4998938;28;20408;-80
2022/05/29 04:48:47;;;;;;;17.17;6.57;;;21.40;99.90;;;;;;5014453;28;20511;-80
2022/05/29 04:51:15;;;;;;;23.88;7.45;;;21.30;99.90;;;;;;5031391;28;20057;-80
2022/05/29 04:53:42;;;;;;;14.73;6.55;;;21.30;99.90;;;;;;5032583;28;20399;-80
2022/05/29 04:56:10;;;;;;;16.35;7.93;;;21.20;99.90;;;;;;5014612;28;20060;-80
2022/05/29 04:58:38;;;;;;;19.65;6.82;;;21.10;99.90;;;;;;5013980;28;20045;-80
2022/05/29 05:01:06;;;;;;;19.25;6.97;;;21.10;99.90;;;;;;5014194;28;20049;-80
2022/05/29 05:03:33;;;;;;;18.38;7.85;;;21.20;99.90;;;;;;5030646;28;20137;-80
2022/05/29 05:06:01;;;;;;;15.18;6.82;;;21.30;99.90;;;;;;5030700;28;20526;-82
2022/05/29 05:08:28;;;;;;;10.95;7.10;;;21.50;99.90;;;;;;5047747;28;20483;-80
2022/05/29 05:10:57;;;;;;;12.73;6.40;;;21.60;99.90;;;;;;5014637;28;20057;-80
2022/05/29 05:13:24;;;;;;;14.90;6.60;;;21.70;99.90;;;;;;5031051;28;20880;-80
2022/05/29 05:16:02;;;;;;;17.05;7.07;;;21.70;99.90;;;;;;5030973;28;20124;-82
2022/05/29 05:18:32;;;;;;;13.15;5.60;;;21.70;99.90;;;;;;5015364;28;20049;-82
2022/05/29 05:21:02;;;;;;;14.88;6.20;;;21.70;99.90;;;;;;4998231;28;20100;-82
2022/05/29 05:23:30;;;;;;;14.98;6.30;;;21.70;99.90;;;;;;5030811;28;20411;-83
2022/05/29 05:25:58;;;;;;;16.25;7.90;;;21.70;99.90;;;;;;5030852;28;20104;-83
2022/05/29 05:28:25;;;;;;;10.95;6.07;;;21.80;99.90;;;;;;5013574;28;20501;-81
2022/05/29 05:30:53;;;;;;;12.18;6.65;;;21.70;99.90;;;;;;5013395;28;20575;-80
2022/05/29 05:33:20;;;;;;;11.15;6.05;;;21.70;99.90;;;;;;5014643;28;20104;-82
2022/05/29 05:35:48;;;;;;;22.38;6.82;;;21.70;99.90;;;;;;5054006;28;20041;-82
2022/05/29 05:38:16;;;;;;;17.15;6.40;;;21.70;99.90;;;;;;5020807;28;20503;-83
2022/05/29 05:40:43;;;;;;;10.43;6.07;;;21.70;99.90;;;;;;5047739;28;20052;-82
2022/05/29 05:43:11;;;;;;;12.02;6.32;;;21.70;99.90;;;;;;5020665;28;20044;-80
2022/05/29 05:45:42;;;;;;;11.73;5.90;;;21.70;99.90;;;;;;5037022;28;20775;-80
2022/05/29 05:48:10;;;;;;;12.70;5.93;;;21.70;99.90;;;;;;5036991;28;20049;-80
2022/05/29 05:50:38;;;;;;;10.15;5.80;;;21.80;99.90;;;;;;5053802;28;20619;-81
2022/05/29 05:53:06;;;;;;;14.25;6.85;;;21.80;99.90;;;;;;5037086;28;20486;-79
2022/05/29 05:55:36;;;;;;;17.88;4.90;;;22.10;99.90;;;;;;5036581;28;20053;-80
2022/05/29 05:58:04;;;;;;;14.52;5.90;;;22.40;99.90;;;;;;5036773;28;20048;-80
2022/05/29 06:00:31;;;;;;;14.75;5.40;;;22.50;99.90;;;;;;5036968;28;20123;-80
2022/05/29 06:02:59;;;;;;;12.05;4.85;;;22.60;99.90;;;;;;5036978;28;20071;-81
2022/05/29 06:05:26;;;;;;;9.55;5.68;;;22.90;99.90;;;;;;5053562;28;20090;-81
2022/05/29 06:07:54;;;;;;;8.25;4.38;;;23.10;99.90;;;;;;5037195;28;20041;-81
2022/05/29 06:10:22;;;;;;;11.75;4.40;;;23.10;99.90;;;;;;5036965;28;20145;-80
2022/05/29 06:12:50;;;;;;;12.35;5.43;;;23.20;99.90;;;;;;5053188;28;20050;-81
2022/05/29 06:15:17;;;;;;;11.18;4.30;;;23.50;99.90;;;;;;5036476;28;20044;-80
2022/05/29 06:17:45;;;;;;;10.70;4.47;;;23.50;99.90;;;;;;5070179;28;20540;-81
2022/05/29 06:20:13;;;;;;;15.30;5.28;;;23.60;99.90;;;;;;5036584;28;20525;-80
2022/05/29 06:22:41;;;;;;;14.10;6.05;;;23.50;99.90;;;;;;5036423;28;20149;-81
2022/05/29 06:25:10;;;;;;;13.27;4.72;;;23.60;99.90;;;;;;5052664;28;20049;-81
2022/05/29 06:27:39;;;;;;;7.15;4.13;;;23.70;99.90;;;;;;5035480;28;20514;-80
2022/05/29 06:30:09;;;;;;;9.55;5.82;;;23.70;99.90;;;;;;5053421;28;20062;-82
2022/05/29 06:32:37;;;;;;;14.45;5.75;;;23.70;99.90;;;;;;5036217;28;20060;-80
2022/05/29 06:35:07;;;;;;;9.57;4.65;;;23.80;99.90;;;;;;5052573;28;20056;-81
2022/05/29 06:37:39;;;;;;;14.80;4.25;;;23.60;99.90;;;;;;5036026;28;20445;-81
2022/05/29 06:40:09;;;;;;;9.77;5.22;;;23.40;99.90;;;;;;5051610;28;20426;-81
2022/05/29 06:42:40;;;;;;;14.18;5.25;;;23.40;99.90;;;;;;5019450;28;20525;-80
2022/05/29 06:45:09;;;;;;;10.27;4.80;;;23.30;99.90;;;;;;5051981;28;20514;-83
2022/05/29 06:47:40;;;;;;;11.13;6.00;;;23.20;99.90;;;;;;5019785;28;20051;-83
2022/05/29 06:50:10;;;;;;;12.77;5.35;;;23.00;99.90;;;;;;5036254;28;20048;-84
2022/05/29 06:52:38;;;;;;;9.05;4.55;;;22.90;99.90;;;;;;5035973;28;20059;-83
2022/05/29 06:55:06;;;;;;;12.60;5.20;;;22.90;99.90;;;;;;5019972;28;20131;-80
2022/05/29 06:57:37;;;;;;;9.02;4.50;;;22.90;99.90;;;;;;5035934;28;20051;-80
2022/05/29 07:08:33;;;;;;;6.57;4.32;;;23.00;99.90;;;;;;5035367;28;19955;-81
2022/05/29 07:11:11;;;;;;;13.07;5.55;;;23.30;99.90;;;;;;5019527;28;20059;-81
2022/05/29 07:13:39;;;;;;;7.53;4.32;;;23.60;99.90;;;;;;5019372;28;20126;-81
2022/05/29 07:16:07;;;;;;;9.30;4.60;;;23.60;99.50;;;;;;5019260;28;20044;-81
2022/05/29 07:18:34;;;;;;;6.30;3.85;;;23.70;99.50;;;;;;5070054;28;20051;-80
2022/05/29 07:21:04;;;;;;;9.00;3.65;;;23.90;99.00;;;;;;5090639;28;20040;-81
2022/05/29 07:23:33;;;;;;;8.73;4.30;;;24.00;97.80;;;;;;5072502;28;20058;-80
2022/05/29 07:26:01;;;;;;;6.90;3.72;;;24.00;98.10;;;;;;5071828;28;20086;-80
2022/05/29 07:28:29;;;;;;;8.10;4.18;;;23.90;99.00;;;;;;5055812;28;20039;-82
2022/05/29 07:30:56;;;;;;;10.93;4.85;;;24.10;99.20;;;;;;5055523;28;20113;-80
2022/05/29 07:33:26;;;;;;;13.23;4.38;;;24.20;99.30;;;;;;5055132;28;20193;-81
2022/05/29 07:35:53;;;;;;;8.75;4.00;;;24.40;98.50;;;;;;5055929;28;20433;-81
2022/05/29 07:38:22;;;;;;;10.77;4.30;;;24.50;97.80;;;;;;5038969;28;20398;-80
2022/05/29 07:40:52;;;;;;;8.85;4.45;;;24.50;97.90;;;;;;5054654;28;20082;-82
2022/05/29 07:43:20;;;;;;;11.90;4.60;;;24.70;98.00;;;;;;5055784;28;20109;-82
2022/05/29 07:45:58;;;;;;;11.43;4.18;;;24.80;97.70;;;;;;5072093;28;20102;-81
2022/05/29 07:48:27;;;;;;;10.40;3.58;;;24.80;97.60;;;;;;5055379;28;20040;-81
2022/05/29 07:50:55;;;;;;;7.75;3.70;;;24.90;97.70;;;;;;5072001;28;20051;-81
2022/05/29 07:53:23;;;;;;;6.60;3.50;;;24.80;97.50;;;;;;5038771;28;20090;-81
2022/05/29 07:55:50;;;;;;;11.18;4.70;;;24.60;97.90;;;;;;5038540;28;20592;-80
2022/05/29 07:58:18;;;;;;;10.50;4.18;;;24.60;98.10;;;;;;5070877;28;20048;-81
2022/05/29 08:00:45;;;;;;;8.07;4.38;;;24.90;97.90;;;;;;5071671;28;20044;-82
2022/05/29 08:03:13;;;;;;;9.20;4.40;;;25.10;97.50;;;;;;5055350;28;20440;-81
2022/05/29 08:05:41;;;;;;;14.32;4.15;;;24.90;97.20;;;;;;5024176;28;20072;-82
2022/05/29 08:08:10;;;;;;;12.07;4.93;;;25.00;97.30;;;;;;5051430;28;20517;-81
2022/05/29 08:10:40;;;;;;;13.25;4.20;;;25.10;96.70;;;;;;5051445;28;20056;-81
2022/05/29 08:13:08;;;;;;;14.63;4.85;;;24.80;97.30;;;;;;5035104;28;20094;-81
2022/05/29 08:15:36;;;;;;;9.50;3.10;;;24.30;97.40;;;;;;5035495;28;20048;-82
2022/05/29 08:18:04;;;;;;;13.20;3.22;;;23.70;97.20;;;;;;5019147;28;20171;-82
2022/05/29 08:20:36;;;;;;;14.65;6.32;;;23.40;97.70;;;;;;5038559;28;20058;-83
2022/05/29 08:23:10;;;;;;;12.70;3.92;;;22.30;99.90;;;;;;5039117;28;20076;-78
2022/05/29 08:31:29;;;;;;;14.52;5.32;;;21.10;99.90;;;;;;5010122;28;20054;-80
2022/05/29 08:33:58;;;;;;;10.43;5.22;;;21.20;99.90;;;;;;4977238;28;20054;-81
2022/05/29 08:36:27;;;;;;;9.25;4.80;;;21.30;99.90;;;;;;5008073;28;20729;-80
2022/05/29 08:38:56;;;;;;;13.18;4.93;;;21.40;99.90;;;;;;5038226;28;20051;-80
2022/05/29 08:41:54;;;;;;;12.05;5.38;;;21.40;99.90;;;;;;5038217;28;20074;-80
2022/05/29 09:13:54;;;;;;;7.97;2.72;;;20.80;99.90;;;;;;5054693;28;20044;-81
2022/05/29 09:16:25;;;;;;;6.50;2.42;;;21.10;99.90;;;;;;5054438;28;20064;-81
2022/05/29 09:19:08;;;;;;;5.97;2.85;;;21.20;99.90;;;;;;5021074;28;20044;-81
2022/05/29 09:21:52;;;;;;;4.82;2.92;;;21.40;99.90;;;;;;5021959;28;20052;-80
2022/05/29 09:25:07;;;;;;;3.95;2.47;;;21.50;99.90;;;;;;5036925;28;20053;-81
2022/05/29 09:27:41;;;;;;;11.27;3.50;;;21.70;99.90;;;;;;5034088;28;20075;-81
2022/05/29 09:30:09;;;;;;;8.60;2.47;;;22.00;99.90;;;;;;5036459;28;20075;-81
2022/05/29 09:32:47;;;;;;;6.53;2.83;;;22.20;99.90;;;;;;5037503;28;20059;-82
2022/05/29 09:35:35;;;;;;;10.55;3.20;;;22.60;99.90;;;;;;5037246;28;20106;-81
2022/05/29 09:38:28;;;;;;;10.45;3.35;;;22.70;99.90;;;;;;5047112;28;20131;-81
2022/05/29 09:41:06;;;;;;;11.35;4.30;;;22.90;99.90;;;;;;5033033;28;20086;-80
2022/05/29 09:43:33;;;;;;;8.68;4.32;;;23.20;99.90;;;;;;5037277;28;20044;-82
2022/05/29 09:46:23;;;;;;;11.88;5.25;;;23.20;99.90;;;;;;5037069;28;20629;-83
2022/05/29 09:52:04;;;;;;;11.27;4.50;;;22.90;99.90;;;;;;5046262;28;20139;-80
2022/05/29 09:54:44;;;;;;;7.97;4.28;;;22.80;99.90;;;;;;5036644;28;20072;-80
2022/05/29 09:57:42;;;;;;;10.18;5.07;;;22.70;99.90;;;;;;5037313;28;20140;-80
2022/05/29 10:00:23;;;;;;;11.80;5.40;;;22.80;99.90;;;;;;5053503;28;20159;-81
2022/05/29 10:02:51;;;;;;;21.08;6.00;;;22.80;99.90;;;;;;5053670;28;20072;-80
2022/05/29 10:05:28;;;;;;;11.65;5.20;;;22.90;99.90;;;;;;5069749;28;20051;-80
2022/05/29 10:07:59;;;;;;;12.63;4.88;;;22.90;99.90;;;;;;5053498;28;20053;-81
2022/05/29 10:10:26;;;;;;;11.23;5.93;;;23.00;99.90;;;;;;5053767;28;20079;-81
2022/05/29 10:12:57;;;;;;;12.20;5.82;;;23.10;99.90;;;;;;5053080;28;20056;-81
2022/05/29 10:15:44;;;;;;;16.20;6.63;;;23.20;99.90;;;;;;5037569;28;20052;-80
2022/05/29 10:18:37;;;;;;;14.95;6.18;;;23.20;99.90;;;;;;5052531;28;20064;-79
2022/05/29 10:21:08;;;;;;;9.98;5.32;;;22.90;99.90;;;;;;5052171;28;20052;-79
2022/05/29 10:23:38;;;;;;;10.15;4.03;;;22.50;99.90;;;;;;5035912;28;20071;-80
2022/05/29 10:26:36;;;;;;;5.85;3.05;;;22.20;99.90;;;;;;5036016;28;20601;-79
2022/05/29 10:29:20;;;;;;;7.38;3.50;;;21.80;99.90;;;;;;5035762;28;20052;-79
2022/05/29 10:31:51;;;;;;;6.78;2.78;;;21.40;99.90;;;;;;5036540;28;20403;-79
2022/05/29 10:34:25;;;;;;;6.82;2.50;;;21.20;99.90;;;;;;5052048;28;20053;-80
2022/05/29 10:36:54;;;;;;;4.03;2.45;;;21.00;99.90;;;;;;5068250;28;20041;-79
2022/05/29 10:39:25;;;;;;;6.63;2.83;;;21.00;99.90;;;;;;5070092;28;20143;-79
2022/05/29 10:41:54;;;;;;;7.32;2.20;;;21.00;99.90;;;;;;5052488;28;20117;-80
2022/05/29 10:44:46;;;;;;;7.70;3.00;;;20.90;99.90;;;;;;5070175;28;20045;-79
2022/05/29 10:47:17;;;;;;;5.57;3.22;;;20.90;99.90;;;;;;5039283;28;20048;-79
2022/05/29 10:49:59;;;;;;;4.70;2.38;;;20.80;99.90;;;;;;5055922;28;20421;-79
2022/05/29 10:52:46;;;;;;;6.50;3.05;;;20.80;99.90;;;;;;5075151;28;20048;-79
2022/05/29 10:55:32;;;;;;;4.07;2.45;;;20.70;99.90;;;;;;5071879;28;20159;-80
2022/05/29 10:58:09;;;;;;;5.10;3.30;;;20.80;99.90;;;;;;5055783;28;20407;-82
2022/05/29 11:03:17;;;;;;;9.52;3.75;;;20.90;99.90;;;;;;5054415;28;20293;-80
2022/05/29 11:04:15;;;;;;;7.60;3.00;;;21.20;99.90;;;;;;5055691;28;20075;-77
2022/05/29 11:07:00;;;;;;;7.53;2.58;;;21.60;99.90;;;;;;5056248;28;20166;-80
2022/05/29 11:09:42;;;;;;;5.53;2.90;;;22.00;99.90;;;;;;5072003;28;20051;-79
2022/05/29 11:12:57;;;;;;;5.45;2.45;;;22.30;99.90;;;;;;5040152;28;20044;-78
2022/05/29 11:16:06;;;;;;;3.83;2.45;;;22.50;99.90;;;;;;5045908;28;20114;-79
2022/05/29 11:19:06;;;;;;;7.03;3.38;;;22.50;99.90;;;;;;5069448;28;20044;-77
2022/05/29 11:21:45;;;;;;;7.65;3.67;;;22.50;99.90;;;;;;5075216;28;20052;-77
2022/05/29 11:24:58;;;;;;;7.22;2.83;;;22.40;99.90;;;;;;5071981;28;20048;-77
2022/05/29 11:27:28;;;;;;;7.85;3.05;;;22.30;99.90;;;;;;4976123;28;20126;-75
2022/05/29 11:30:10;;;;;;;6.18;3.33;;;21.90;99.90;;;;;;4991856;28;20069;-76
2022/05/29 11:32:53;;;;;;;7.32;4.32;;;21.80;99.90;;;;;;5041034;28;20052;-77
2022/05/29 11:35:51;;;;;;;10.35;4.05;;;21.90;99.90;;;;;;5054850;28;20051;-78
2022/05/29 11:38:39;;;;;;;8.25;4.05;;;21.70;99.90;;;;;;5018952;28;20071;-79
2022/05/29 11:41:38;;;;;;;8.00;3.90;;;21.70;99.90;;;;;;5051809;28;20048;-76
2022/05/29 11:44:38;;;;;;;6.03;3.08;;;21.30;99.90;;;;;;5019374;28;20056;-78
2022/05/29 11:53:25;;;;;;;8.00;3.63;;;21.00;99.90;;;;;;5037130;28;20064;-78
2022/05/29 11:55:56;;;;;;;6.63;3.25;;;20.70;99.90;;;;;;5056172;28;20051;-78
2022/05/29 11:59:01;;;;;;;8.48;2.20;;;20.90;99.90;;;;;;5039135;28;20056;-77
2022/05/29 12:01:39;;;;;;;5.60;3.30;;;20.80;99.90;;;;;;5034500;28;20052;-77
2022/05/29 12:04:44;;;;;;;4.85;3.10;;;20.80;99.90;;;;;;5023413;28;20087;-77
2022/05/29 12:07:26;;;;;;;6.85;3.15;;;20.80;99.90;;;;;;5023036;28;20045;-77
2022/05/29 12:10:21;;;;;;;5.63;3.42;;;21.00;99.90;;;;;;5039361;28;20819;-77
2022/05/29 12:12:57;;;;;;;7.82;3.15;;;21.00;99.90;;;;;;5039373;28;20039;-77
2022/05/29 12:15:25;;;;;;;7.03;2.90;;;21.30;99.90;;;;;;5055453;28;20136;-77
2022/05/29 12:18:00;;;;;;;5.15;3.00;;;21.30;99.90;;;;;;5056038;28;20040;-77
2022/05/29 12:20:40;;;;;;;4.32;2.40;;;21.20;99.90;;;;;;5022597;28;20070;-78
2022/05/29 12:23:28;;;;;;;2.63;2.00;;;21.10;99.90;;;;;;5055934;28;20049;-78
2022/05/29 12:26:16;;;;;;;3.72;2.25;;;21.00;99.90;;;;;;5055507;28;20036;-77
2022/05/29 12:28:50;;;;;;;3.40;1.35;;;21.10;99.90;;;;;;5055015;28;20047;-78
2022/05/29 12:31:26;;;;;;;2.55;1.40;;;21.20;99.90;;;;;;5038362;28;20068;-77
2022/05/29 12:33:54;;;;;;;3.80;2.20;;;21.30;99.90;;;;;;5041261;28;20049;-76
2022/05/29 12:36:54;;;;;;;5.22;1.90;;;21.30;99.90;;;;;;5053489;28;20041;-77
2022/05/29 12:39:36;;;;;;;2.97;1.80;;;20.80;99.90;;;;;;5025252;28;20159;-78
2022/05/29 12:42:23;;;;;;;4.30;1.88;;;20.80;99.90;;;;;;5037149;28;20044;-77
2022/05/29 12:45:27;;;;;;;5.00;2.65;;;21.10;99.90;;;;;;5053698;28;20044;-77
2022/05/29 12:48:16;;;;;;;3.40;2.17;;;21.20;99.90;;;;;;5054027;28;20072;-77
2022/05/29 12:51:05;;;;;;;3.90;2.10;;;21.30;99.90;;;;;;5053642;28;20483;-77
2022/05/29 12:53:55;;;;;;;5.43;2.85;;;21.50;99.90;;;;;;5036481;28;20052;-77
2022/05/29 12:56:46;;;;;;;3.08;2.72;;;21.70;99.90;;;;;;5070843;28;20041;-76
2022/05/29 12:59:35;;;;;;;6.80;2.65;;;21.90;99.90;;;;;;5028829;28;20044;-77
2022/05/29 13:02:21;;;;;;;5.78;2.42;;;22.10;99.90;;;;;;5053782;28;20086;-77
2022/05/29 13:04:57;;;;;;;6.15;2.25;;;22.30;99.90;;;;;;5053310;28;20080;-77
2022/05/29 13:07:26;;;;;;;5.95;2.20;;;22.40;99.90;;;;;;5053794;28;20074;-77
2022/05/29 13:10:09;;;;;;;4.80;2.33;;;22.40;99.80;;;;;;5071358;28;20493;-76
2022/05/29 13:12:45;;;;;;;6.40;3.83;;;22.50;99.90;;;;;;5036880;28;20056;-75
2022/05/29 13:15:24;;;;;;;7.30;3.25;;;22.60;99.90;;;;;;5037022;28;20368;-75
2022/05/29 13:21:06;;;;;;;7.35;3.78;;;22.80;99.90;;;;;;5040045;28;20636;-75
2022/05/29 13:23:58;;;;;;;12.32;3.65;;;22.90;99.90;;;;;;5036738;28;20050;-75
2022/05/29 13:26:31;;;;;;;7.25;3.95;;;23.10;99.90;;;;;;5053282;28;20090;-76
2022/05/29 13:29:28;;;;;;;7.05;4.80;;;23.20;99.90;;;;;;5070215;28;20109;-76
2022/05/29 13:32:10;;;;;;;;;;;23.20;99.90;;;;;;5071115;28;20502;-75
2022/05/29 13:34:39;;;;;;;11.77;4.88;;;23.40;99.90;;;;;;5005837;28;1403404;-75
2022/05/29 13:37:30;;;;;;;8.43;4.45;;;23.50;99.90;;;;;;5074229;28;20044;-76
2022/05/29 13:40:30;;;;;;;8.75;4.72;;;23.50;99.90;;;;;;5062764;28;20048;-75
2022/05/29 13:43:13;;;;;;;10.63;5.28;;;23.50;99.90;;;;;;5091317;28;20048;-75
2022/05/29 13:45:43;;;;;;;9.57;5.18;;;23.50;99.90;;;;;;5057099;28;20097;-76
2022/05/29 13:48:24;;;;;;;11.98;5.47;;;23.40;99.90;;;;;;5091895;28;20040;-76
2022/05/29 13:51:18;;;;;;;6.35;4.45;;;23.30;99.90;;;;;;5073786;28;20808;-75
2022/05/29 13:54:02;;;;;;;12.55;5.40;;;23.30;99.90;;;;;;5040339;28;20044;-76
2022/05/29 13:56:50;;;;;;;14.00;5.88;;;23.30;99.90;;;;;;5057291;28;20040;-75
2022/05/29 14:05:38;;;;;;;10.73;5.97;;;23.20;99.90;;;;;;5070289;28;20153;-76
2022/05/29 14:08:18;;;;;;;15.38;4.85;;;23.20;99.90;;;;;;5073394;28;20056;-75
2022/05/29 14:10:50;;;;;;;11.43;5.93;;;23.20;99.90;;;;;;5091201;28;20051;-75
2022/05/29 14:13:47;;;;;;;7.55;4.63;;;23.20;99.90;;;;;;5056879;28;20051;-76
2022/05/29 14:16:40;;;;;;;9.32;4.63;;;23.20;99.90;;;;;;5056369;28;20048;-78
2022/05/29 14:19:31;;;;;;;8.77;5.43;;;23.20;99.90;;;;;;5070950;28;20044;-77
2022/05/29 14:22:11;;;;;;;8.45;4.85;;;23.20;99.90;;;;;;5056697;28;20051;-77
2022/05/29 14:25:07;;;;;;;8.98;5.22;;;23.20;99.90;;;;;;5055916;28;20071;-77
2022/05/29 14:28:03;;;;;;;7.43;3.83;;;23.10;99.90;;;;;;5091061;28;20048;-77
2022/05/29 14:30:39;;;;;;;8.13;4.50;;;23.10;99.90;;;;;;5072946;28;20162;-77
2022/05/29 14:33:29;;;;;;;8.18;3.67;;;23.00;99.90;;;;;;5056578;28;20428;-77
2022/05/29 14:36:15;;;;;;;5.93;3.45;;;23.10;99.90;;;;;;5055839;28;20428;-77
2022/05/29 14:38:55;;;;;;;9.90;4.78;;;23.10;99.90;;;;;;5039519;28;20402;-78